sensor_id;sensor_type;location;lat;lon;timestamp;P1;durP1;ratioP1;P2;durP2;ratioP2
63534;SDS011;55128;50.230;18.944;2023-09-12T00:02:41;19.25;;;16.15;;
63534;SDS011;55128;50.230;18.944;2023-09-12T00:07:42;17.80;;;16.07;;
63534;SDS011;55128;50.230;18.944;2023-09-12T00:12:42;19.47;;;17.47;;
63534;SDS011;55128;50.230;18.944;2023-09-12T00:17:42;18.20;;;16.30;;
63534;SDS011;55128;50.230;18.944;2023-09-12T00:22:43;17.80;;;15.90;;
63534;SDS011;55128;50.230;18.944;2023-09-12T00:27:43;18.75;;;16.80;;
63534;SDS011;55128;50.230;18.944;2023-09-12T00:32:45;23.83;;;21.10;;
63534;SDS011;55128;50.230;18.944;2023-09-12T00:37:46;21.73;;;19.63;;
63534;SDS011;55128;50.230;18.944;2023-09-12T00:42:46;20.27;;;18.38;;
63534;SDS011;55128;50.230;18.944;2023-09-12T00:47:46;19.48;;;17.38;;
63534;SDS011;55128;50.230;18.944;2023-09-12T00:52:48;21.20;;;17.02;;
63534;SDS011;55128;50.230;18.944;2023-09-12T00:57:49;19.55;;;17.55;;
63534;SDS011;55128;50.230;18.944;2023-09-12T01:02:50;19.35;;;17.48;;
63534;SDS011;55128;50.230;18.944;2023-09-12T01:07:52;18.80;;;16.92;;
63534;SDS011;55128;50.230;18.944;2023-09-12T01:12:53;19.58;;;17.70;;
63534;SDS011;55128;50.230;18.944;2023-09-12T01:17:53;21.67;;;19.58;;
63534;SDS011;55128;50.230;18.944;2023-09-12T01:28:07;36.03;;;31.42;;
63534;SDS011;55128;50.230;18.944;2023-09-12T01:33:09;22.88;;;20.40;;
63534;SDS011;55128;50.230;18.944;2023-09-12T01:38:10;21.40;;;19.23;;
63534;SDS011;55128;50.230;18.944;2023-09-12T01:43:10;29.52;;;25.75;;
63534;SDS011;55128;50.230;18.944;2023-09-12T01:48:13;31.48;;;28.15;;
63534;SDS011;55128;50.230;18.944;2023-09-12T01:53:20;26.65;;;23.27;;
63534;SDS011;55128;50.230;18.944;2023-09-12T01:58:22;23.02;;;19.25;;
63534;SDS011;55128;50.230;18.944;2023-09-12T02:03:25;22.85;;;20.40;;
63534;SDS011;55128;50.230;18.944;2023-09-12T02:08:25;20.20;;;18.23;;
63534;SDS011;55128;50.230;18.944;2023-09-12T02:13:25;22.35;;;20.00;;
63534;SDS011;55128;50.230;18.944;2023-09-12T02:18:25;21.70;;;19.40;;
63534;SDS011;55128;50.230;18.944;2023-09-12T02:23:26;25.45;;;21.25;;
63534;SDS011;55128;50.230;18.944;2023-09-12T02:28:26;23.30;;;20.73;;
63534;SDS011;55128;50.230;18.944;2023-09-12T02:33:27;24.50;;;21.83;;
63534;SDS011;55128;50.230;18.944;2023-09-12T02:38:27;23.35;;;20.98;;
63534;SDS011;55128;50.230;18.944;2023-09-12T02:43:28;23.83;;;18.92;;
63534;SDS011;55128;50.230;18.944;2023-09-12T02:48:29;22.45;;;20.35;;
63534;SDS011;55128;50.230;18.944;2023-09-12T02:53:29;23.60;;;21.10;;
63534;SDS011;55128;50.230;18.944;2023-09-12T02:58:30;23.70;;;21.05;;
63534;SDS011;55128;50.230;18.944;2023-09-12T03:03:30;21.17;;;18.97;;
63534;SDS011;55128;50.230;18.944;2023-09-12T03:08:30;21.73;;;19.42;;
63534;SDS011;55128;50.230;18.944;2023-09-12T03:13:31;23.27;;;19.65;;
63534;SDS011;55128;50.230;18.944;2023-09-12T03:18:31;23.77;;;21.38;;
63534;SDS011;55128;50.230;18.944;2023-09-12T03:23:32;21.95;;;19.00;;
63534;SDS011;55128;50.230;18.944;2023-09-12T03:28:32;22.20;;;20.02;;
63534;SDS011;55128;50.230;18.944;2023-09-12T03:33:33;22.10;;;19.63;;
63534;SDS011;55128;50.230;18.944;2023-09-12T03:38:33;22.15;;;19.83;;
63534;SDS011;55128;50.230;18.944;2023-09-12T03:43:34;22.02;;;19.83;;
63534;SDS011;55128;50.230;18.944;2023-09-12T03:48:35;22.43;;;20.23;;
63534;SDS011;55128;50.230;18.944;2023-09-12T03:53:36;21.52;;;19.25;;
63534;SDS011;55128;50.230;18.944;2023-09-12T03:58:37;26.03;;;20.37;;
63534;SDS011;55128;50.230;18.944;2023-09-12T04:03:37;22.55;;;20.20;;
63534;SDS011;55128;50.230;18.944;2023-09-12T04:08:37;22.92;;;20.13;;
63534;SDS011;55128;50.230;18.944;2023-09-12T04:13:38;21.30;;;19.20;;
63534;SDS011;55128;50.230;18.944;2023-09-12T04:18:38;22.95;;;20.65;;
63534;SDS011;55128;50.230;18.944;2023-09-12T04:23:38;26.13;;;21.73;;
63534;SDS011;55128;50.230;18.944;2023-09-12T04:28:39;22.83;;;20.45;;
63534;SDS011;55128;50.230;18.944;2023-09-12T04:33:39;23.23;;;20.73;;
63534;SDS011;55128;50.230;18.944;2023-09-12T04:38:39;24.83;;;21.60;;
63534;SDS011;55128;50.230;18.944;2023-09-12T04:43:40;23.83;;;20.23;;
63534;SDS011;55128;50.230;18.944;2023-09-12T04:48:40;24.48;;;22.00;;
63534;SDS011;55128;50.230;18.944;2023-09-12T04:53:41;26.65;;;21.55;;
63534;SDS011;55128;50.230;18.944;2023-09-12T04:58:41;23.77;;;21.33;;
63534;SDS011;55128;50.230;18.944;2023-09-12T05:03:42;24.53;;;20.50;;
63534;SDS011;55128;50.230;18.944;2023-09-12T05:08:43;22.85;;;20.45;;
63534;SDS011;55128;50.230;18.944;2023-09-12T05:13:44;23.47;;;20.87;;
63534;SDS011;55128;50.230;18.944;2023-09-12T05:18:44;22.57;;;19.97;;
63534;SDS011;55128;50.230;18.944;2023-09-12T05:23:45;23.60;;;20.27;;
63534;SDS011;55128;50.230;18.944;2023-09-12T05:28:46;25.33;;;19.90;;
63534;SDS011;55128;50.230;18.944;2023-09-12T05:33:46;31.38;;;19.95;;
63534;SDS011;55128;50.230;18.944;2023-09-12T05:38:48;20.23;;;18.23;;
63534;SDS011;55128;50.230;18.944;2023-09-12T05:43:49;24.10;;;19.40;;
63534;SDS011;55128;50.230;18.944;2023-09-12T05:48:49;20.03;;;17.97;;
63534;SDS011;55128;50.230;18.944;2023-09-12T05:53:49;21.80;;;16.87;;
63534;SDS011;55128;50.230;18.944;2023-09-12T05:58:50;19.52;;;17.63;;
63534;SDS011;55128;50.230;18.944;2023-09-12T06:03:50;20.08;;;16.42;;
63534;SDS011;55128;50.230;18.944;2023-09-12T06:08:51;22.25;;;18.40;;
63534;SDS011;55128;50.230;18.944;2023-09-12T06:13:53;18.52;;;16.63;;
63534;SDS011;55128;50.230;18.944;2023-09-12T06:18:53;24.60;;;17.65;;
63534;SDS011;55128;50.230;18.944;2023-09-12T06:24:10;20.27;;;18.20;;
63534;SDS011;55128;50.230;18.944;2023-09-12T06:29:12;20.15;;;17.92;;
63534;SDS011;55128;50.230;18.944;2023-09-12T06:34:13;18.95;;;17.00;;
63534;SDS011;55128;50.230;18.944;2023-09-12T06:39:14;19.70;;;17.60;;
63534;SDS011;55128;50.230;18.944;2023-09-12T06:44:14;17.87;;;16.13;;
63534;SDS011;55128;50.230;18.944;2023-09-12T06:49:14;16.53;;;14.90;;
63534;SDS011;55128;50.230;18.944;2023-09-12T06:54:15;15.73;;;14.13;;
63534;SDS011;55128;50.230;18.944;2023-09-12T06:59:15;16.00;;;14.27;;
63534;SDS011;55128;50.230;18.944;2023-09-12T07:09:41;14.40;;;13.00;;
63534;SDS011;55128;50.230;18.944;2023-09-12T07:14:41;15.37;;;13.77;;
63534;SDS011;55128;50.230;18.944;2023-09-12T07:19:41;17.60;;;13.53;;
63534;SDS011;55128;50.230;18.944;2023-09-12T07:24:42;13.60;;;12.30;;
63534;SDS011;55128;50.230;18.944;2023-09-12T07:29:42;13.73;;;12.33;;
63534;SDS011;55128;50.230;18.944;2023-09-12T07:34:43;12.03;;;10.83;;
63534;SDS011;55128;50.230;18.944;2023-09-12T07:39:48;12.10;;;10.90;;
63534;SDS011;55128;50.230;18.944;2023-09-12T07:44:49;12.10;;;10.70;;
63534;SDS011;55128;50.230;18.944;2023-09-12T07:49:53;11.20;;;9.35;;
63534;SDS011;55128;50.230;18.944;2023-09-12T07:54:58;11.93;;;10.00;;
63534;SDS011;55128;50.230;18.944;2023-09-12T07:59:59;9.95;;;8.93;;
63534;SDS011;55128;50.230;18.944;2023-09-12T08:05:00;9.90;;;8.90;;
63534;SDS011;55128;50.230;18.944;2023-09-12T08:10:01;10.27;;;9.25;;
63534;SDS011;55128;50.230;18.944;2023-09-12T08:15:02;11.32;;;9.77;;
63534;SDS011;55128;50.230;18.944;2023-09-12T08:20:03;10.82;;;9.68;;
63534;SDS011;55128;50.230;18.944;2023-09-12T08:25:03;11.80;;;10.10;;
63534;SDS011;55128;50.230;18.944;2023-09-12T08:30:04;15.55;;;10.82;;
63534;SDS011;55128;50.230;18.944;2023-09-12T08:35:06;12.20;;;10.88;;
63534;SDS011;55128;50.230;18.944;2023-09-12T08:40:07;11.75;;;10.50;;
63534;SDS011;55128;50.230;18.944;2023-09-12T08:45:11;12.55;;;11.38;;
63534;SDS011;55128;50.230;18.944;2023-09-12T08:50:14;13.55;;;11.75;;
63534;SDS011;55128;50.230;18.944;2023-09-12T08:55:16;14.80;;;11.98;;
63534;SDS011;55128;50.230;18.944;2023-09-12T09:00:17;12.77;;;11.15;;
63534;SDS011;55128;50.230;18.944;2023-09-12T09:05:18;12.05;;;9.98;;
63534;SDS011;55128;50.230;18.944;2023-09-12T09:10:21;11.30;;;8.90;;
63534;SDS011;55128;50.230;18.944;2023-09-12T09:15:29;10.10;;;8.13;;
63534;SDS011;55128;50.230;18.944;2023-09-12T09:20:31;8.63;;;7.82;;
63534;SDS011;55128;50.230;18.944;2023-09-12T09:25:41;8.55;;;7.75;;
63534;SDS011;55128;50.230;18.944;2023-09-12T09:30:43;13.23;;;8.40;;
63534;SDS011;55128;50.230;18.944;2023-09-12T09:35:45;8.23;;;7.43;;
63534;SDS011;55128;50.230;18.944;2023-09-12T09:40:47;8.90;;;7.95;;
63534;SDS011;55128;50.230;18.944;2023-09-12T09:45:48;10.23;;;7.65;;
63534;SDS011;55128;50.230;18.944;2023-09-12T09:50:49;9.88;;;8.30;;
63534;SDS011;55128;50.230;18.944;2023-09-12T09:55:49;11.15;;;8.15;;
63534;SDS011;55128;50.230;18.944;2023-09-12T10:00:50;10.38;;;8.25;;
63534;SDS011;55128;50.230;18.944;2023-09-12T10:05:51;8.95;;;8.05;;
63534;SDS011;55128;50.230;18.944;2023-09-12T10:10:54;8.65;;;7.75;;
63534;SDS011;55128;50.230;18.944;2023-09-12T10:15:54;9.40;;;8.40;;
63534;SDS011;55128;50.230;18.944;2023-09-12T10:20:58;9.23;;;7.78;;
63534;SDS011;55128;50.230;18.944;2023-09-12T10:26:13;8.67;;;7.87;;
63534;SDS011;55128;50.230;18.944;2023-09-12T10:31:15;10.50;;;8.23;;
63534;SDS011;55128;50.230;18.944;2023-09-12T10:36:17;9.05;;;7.80;;
63534;SDS011;55128;50.230;18.944;2023-09-12T10:41:19;9.13;;;8.23;;
63534;SDS011;55128;50.230;18.944;2023-09-12T10:46:23;9.02;;;8.05;;
63534;SDS011;55128;50.230;18.944;2023-09-12T10:51:24;9.83;;;8.50;;
63534;SDS011;55128;50.230;18.944;2023-09-12T10:56:24;8.75;;;7.90;;
63534;SDS011;55128;50.230;18.944;2023-09-12T11:01:32;8.60;;;7.30;;
63534;SDS011;55128;50.230;18.944;2023-09-12T11:06:33;11.43;;;9.47;;
63534;SDS011;55128;50.230;18.944;2023-09-12T11:11:33;8.33;;;7.53;;
63534;SDS011;55128;50.230;18.944;2023-09-12T11:16:34;10.57;;;7.37;;
63534;SDS011;55128;50.230;18.944;2023-09-12T11:21:37;30.30;;;7.60;;
63534;SDS011;55128;50.230;18.944;2023-09-12T11:31:58;8.82;;;7.43;;
63534;SDS011;55128;50.230;18.944;2023-09-12T11:36:59;8.23;;;7.20;;
63534;SDS011;55128;50.230;18.944;2023-09-12T11:42:00;9.68;;;6.75;;
63534;SDS011;55128;50.230;18.944;2023-09-12T11:47:03;8.85;;;7.95;;
63534;SDS011;55128;50.230;18.944;2023-09-12T11:52:09;8.00;;;7.30;;
63534;SDS011;55128;50.230;18.944;2023-09-12T11:57:12;8.32;;;7.50;;
63534;SDS011;55128;50.230;18.944;2023-09-12T12:02:14;8.52;;;7.72;;
63534;SDS011;55128;50.230;18.944;2023-09-12T12:07:15;8.40;;;7.18;;
63534;SDS011;55128;50.230;18.944;2023-09-12T12:12:16;9.50;;;8.13;;
63534;SDS011;55128;50.230;18.944;2023-09-12T12:17:16;10.02;;;7.57;;
63534;SDS011;55128;50.230;18.944;2023-09-12T12:22:17;8.43;;;7.10;;
63534;SDS011;55128;50.230;18.944;2023-09-12T12:27:17;8.77;;;7.80;;
63534;SDS011;55128;50.230;18.944;2023-09-12T12:32:17;10.70;;;8.23;;
63534;SDS011;55128;50.230;18.944;2023-09-12T12:37:19;9.10;;;8.25;;
63534;SDS011;55128;50.230;18.944;2023-09-12T12:42:20;11.03;;;8.40;;
63534;SDS011;55128;50.230;18.944;2023-09-12T12:47:23;10.25;;;9.13;;
63534;SDS011;55128;50.230;18.944;2023-09-12T12:52:24;9.32;;;8.32;;
63534;SDS011;55128;50.230;18.944;2023-09-12T12:57:25;9.20;;;8.37;;
63534;SDS011;55128;50.230;18.944;2023-09-12T13:02:25;9.43;;;7.90;;
63534;SDS011;55128;50.230;18.944;2023-09-12T13:07:26;12.23;;;8.00;;
63534;SDS011;55128;50.230;18.944;2023-09-12T13:12:26;8.93;;;7.72;;
63534;SDS011;55128;50.230;18.944;2023-09-12T13:17:26;10.70;;;7.80;;
63534;SDS011;55128;50.230;18.944;2023-09-12T13:22:26;8.40;;;7.60;;
63534;SDS011;55128;50.230;18.944;2023-09-12T13:27:27;9.50;;;7.73;;
63534;SDS011;55128;50.230;18.944;2023-09-12T13:32:27;9.37;;;7.77;;
63534;SDS011;55128;50.230;18.944;2023-09-12T13:37:27;10.33;;;8.03;;
63534;SDS011;55128;50.230;18.944;2023-09-12T13:42:29;8.32;;;7.43;;
63534;SDS011;55128;50.230;18.944;2023-09-12T13:47:31;10.00;;;8.23;;
63534;SDS011;55128;50.230;18.944;2023-09-12T13:52:32;7.90;;;7.20;;
63534;SDS011;55128;50.230;18.944;2023-09-12T13:57:32;8.35;;;7.60;;
63534;SDS011;55128;50.230;18.944;2023-09-12T14:02:33;8.83;;;7.00;;
63534;SDS011;55128;50.230;18.944;2023-09-12T14:07:33;9.60;;;7.80;;
63534;SDS011;55128;50.230;18.944;2023-09-12T14:12:35;10.80;;;7.93;;
63534;SDS011;55128;50.230;18.944;2023-09-12T14:17:35;8.98;;;7.57;;
63534;SDS011;55128;50.230;18.944;2023-09-12T14:22:36;8.70;;;7.50;;
63534;SDS011;55128;50.230;18.944;2023-09-12T14:27:37;8.07;;;7.38;;
63534;SDS011;55128;50.230;18.944;2023-09-12T14:32:38;9.30;;;7.45;;
63534;SDS011;55128;50.230;18.944;2023-09-12T14:37:38;12.43;;;8.02;;
63534;SDS011;55128;50.230;18.944;2023-09-12T14:42:39;8.30;;;7.57;;
63534;SDS011;55128;50.230;18.944;2023-09-12T14:47:39;8.00;;;7.20;;
63534;SDS011;55128;50.230;18.944;2023-09-12T14:52:39;9.77;;;6.50;;
63534;SDS011;55128;50.230;18.944;2023-09-12T14:57:41;8.98;;;7.50;;
63534;SDS011;55128;50.230;18.944;2023-09-12T15:02:41;8.02;;;7.15;;
63534;SDS011;55128;50.230;18.944;2023-09-12T15:07:42;8.80;;;7.90;;
63534;SDS011;55128;50.230;18.944;2023-09-12T15:23:58;8.70;;;7.80;;
63534;SDS011;55128;50.230;18.944;2023-09-12T15:28:58;9.02;;;7.72;;
63534;SDS011;55128;50.230;18.944;2023-09-12T15:55:01;9.82;;;8.82;;
63534;SDS011;55128;50.230;18.944;2023-09-12T16:00:04;10.05;;;9.13;;
63534;SDS011;55128;50.230;18.944;2023-09-12T16:05:07;10.10;;;9.20;;
63534;SDS011;55128;50.230;18.944;2023-09-12T16:10:07;9.38;;;8.48;;
63534;SDS011;55128;50.230;18.944;2023-09-12T16:15:10;10.55;;;9.45;;
63534;SDS011;55128;50.230;18.944;2023-09-12T16:20:11;10.60;;;8.70;;
63534;SDS011;55128;50.230;18.944;2023-09-12T16:25:15;10.05;;;8.98;;
63534;SDS011;55128;50.230;18.944;2023-09-12T16:30:15;11.17;;;10.17;;
63534;SDS011;55128;50.230;18.944;2023-09-12T16:35:16;10.50;;;9.40;;
63534;SDS011;55128;50.230;18.944;2023-09-12T16:40:16;10.98;;;9.90;;
63534;SDS011;55128;50.230;18.944;2023-09-12T16:45:17;10.75;;;9.65;;
63534;SDS011;55128;50.230;18.944;2023-09-12T16:50:17;11.33;;;10.20;;
63534;SDS011;55128;50.230;18.944;2023-09-12T16:55:18;10.98;;;9.98;;
63534;SDS011;55128;50.230;18.944;2023-09-12T17:00:19;12.73;;;10.60;;
63534;SDS011;55128;50.230;18.944;2023-09-12T17:05:19;13.73;;;10.75;;
63534;SDS011;55128;50.230;18.944;2023-09-12T17:10:23;14.35;;;13.02;;
63534;SDS011;55128;50.230;18.944;2023-09-12T17:15:23;12.23;;;11.13;;
63534;SDS011;55128;50.230;18.944;2023-09-12T17:20:24;11.63;;;10.57;;
63534;SDS011;55128;50.230;18.944;2023-09-12T17:25:25;12.17;;;11.07;;
63534;SDS011;55128;50.230;18.944;2023-09-12T17:30:25;12.98;;;11.88;;
63534;SDS011;55128;50.230;18.944;2023-09-12T17:35:26;13.53;;;12.17;;
63534;SDS011;55128;50.230;18.944;2023-09-12T17:40:26;13.17;;;12.07;;
63534;SDS011;55128;50.230;18.944;2023-09-12T17:45:26;13.77;;;12.47;;
63534;SDS011;55128;50.230;18.944;2023-09-12T17:50:27;13.68;;;12.32;;
63534;SDS011;55128;50.230;18.944;2023-09-12T17:55:29;14.30;;;12.60;;
63534;SDS011;55128;50.230;18.944;2023-09-12T18:00:30;14.65;;;13.35;;
63534;SDS011;55128;50.230;18.944;2023-09-12T18:16:57;15.82;;;14.25;;
63534;SDS011;55128;50.230;18.944;2023-09-12T18:21:57;15.60;;;13.98;;
63534;SDS011;55128;50.230;18.944;2023-09-12T18:26:58;16.02;;;14.60;;
63534;SDS011;55128;50.230;18.944;2023-09-12T18:31:58;15.93;;;14.43;;
63534;SDS011;55128;50.230;18.944;2023-09-12T18:36:59;17.13;;;15.63;;
63534;SDS011;55128;50.230;18.944;2023-09-12T18:42:00;17.20;;;15.60;;
63534;SDS011;55128;50.230;18.944;2023-09-12T18:58:28;17.08;;;15.63;;
63534;SDS011;55128;50.230;18.944;2023-09-12T19:03:28;17.08;;;15.35;;
63534;SDS011;55128;50.230;18.944;2023-09-12T19:08:30;16.83;;;15.13;;
63534;SDS011;55128;50.230;18.944;2023-09-12T19:13:31;19.57;;;17.60;;
63534;SDS011;55128;50.230;18.944;2023-09-12T19:18:38;19.58;;;17.33;;
63534;SDS011;55128;50.230;18.944;2023-09-12T19:24:04;18.63;;;16.92;;
63534;SDS011;55128;50.230;18.944;2023-09-12T19:29:23;20.73;;;18.67;;
63534;SDS011;55128;50.230;18.944;2023-09-12T19:35:28;20.05;;;18.13;;
63534;SDS011;55128;50.230;18.944;2023-09-12T19:41:07;19.35;;;17.42;;
63534;SDS011;55128;50.230;18.944;2023-09-12T19:46:55;18.83;;;16.95;;
63534;SDS011;55128;50.230;18.944;2023-09-12T19:52:10;20.38;;;18.35;;
63534;SDS011;55128;50.230;18.944;2023-09-12T19:57:36;21.55;;;19.35;;
63534;SDS011;55128;50.230;18.944;2023-09-12T20:02:36;20.20;;;18.10;;
63534;SDS011;55128;50.230;18.944;2023-09-12T20:07:36;21.20;;;19.10;;
63534;SDS011;55128;50.230;18.944;2023-09-12T20:12:37;21.67;;;19.33;;
63534;SDS011;55128;50.230;18.944;2023-09-12T20:17:37;21.27;;;19.37;;
63534;SDS011;55128;50.230;18.944;2023-09-12T20:22:39;21.50;;;19.27;;
63534;SDS011;55128;50.230;18.944;2023-09-12T20:27:39;20.20;;;18.27;;
63534;SDS011;55128;50.230;18.944;2023-09-12T20:32:43;21.70;;;19.60;;
63534;SDS011;55128;50.230;18.944;2023-09-12T20:37:44;23.42;;;20.92;;
63534;SDS011;55128;50.230;18.944;2023-09-12T20:42:45;23.30;;;21.08;;
63534;SDS011;55128;50.230;18.944;2023-09-12T20:47:48;23.10;;;20.90;;
63534;SDS011;55128;50.230;18.944;2023-09-12T20:52:52;23.50;;;21.03;;
63534;SDS011;55128;50.230;18.944;2023-09-12T20:57:53;24.38;;;22.08;;
63534;SDS011;55128;50.230;18.944;2023-09-12T21:02:53;23.33;;;20.90;;
63534;SDS011;55128;50.230;18.944;2023-09-12T21:07:55;25.23;;;22.65;;
63534;SDS011;55128;50.230;18.944;2023-09-12T21:12:56;24.40;;;22.00;;
63534;SDS011;55128;50.230;18.944;2023-09-12T21:17:57;24.05;;;21.48;;
63534;SDS011;55128;50.230;18.944;2023-09-12T21:22:57;22.50;;;20.33;;
63534;SDS011;55128;50.230;18.944;2023-09-12T21:27:59;22.00;;;19.60;;
63534;SDS011;55128;50.230;18.944;2023-09-12T21:32:59;24.95;;;22.45;;
63534;SDS011;55128;50.230;18.944;2023-09-12T21:38:00;22.88;;;20.55;;
63534;SDS011;55128;50.230;18.944;2023-09-12T21:43:00;23.20;;;20.93;;
63534;SDS011;55128;50.230;18.944;2023-09-12T21:48:02;24.13;;;21.60;;
63534;SDS011;55128;50.230;18.944;2023-09-12T21:53:03;24.35;;;21.98;;
63534;SDS011;55128;50.230;18.944;2023-09-12T21:58:04;25.08;;;22.42;;
63534;SDS011;55128;50.230;18.944;2023-09-12T22:03:05;25.05;;;22.55;;
63534;SDS011;55128;50.230;18.944;2023-09-12T22:08:05;25.23;;;22.52;;
63534;SDS011;55128;50.230;18.944;2023-09-12T22:13:06;28.23;;;23.80;;
63534;SDS011;55128;50.230;18.944;2023-09-12T22:18:06;24.60;;;22.05;;
63534;SDS011;55128;50.230;18.944;2023-09-12T22:23:08;23.40;;;21.02;;
63534;SDS011;55128;50.230;18.944;2023-09-12T22:28:08;25.10;;;22.67;;
63534;SDS011;55128;50.230;18.944;2023-09-12T22:33:10;24.40;;;22.13;;
63534;SDS011;55128;50.230;18.944;2023-09-12T22:38:11;24.85;;;22.45;;
63534;SDS011;55128;50.230;18.944;2023-09-12T22:43:12;24.77;;;22.20;;
63534;SDS011;55128;50.230;18.944;2023-09-12T22:48:13;24.00;;;21.63;;
63534;SDS011;55128;50.230;18.944;2023-09-12T22:53:15;24.77;;;22.30;;
63534;SDS011;55128;50.230;18.944;2023-09-12T22:58:15;23.53;;;21.33;;
63534;SDS011;55128;50.230;18.944;2023-09-12T23:03:16;25.70;;;22.95;;
63534;SDS011;55128;50.230;18.944;2023-09-12T23:08:16;24.15;;;21.52;;
63534;SDS011;55128;50.230;18.944;2023-09-12T23:13:17;23.50;;;21.17;;
63534;SDS011;55128;50.230;18.944;2023-09-12T23:18:17;23.73;;;21.30;;
63534;SDS011;55128;50.230;18.944;2023-09-12T23:23:18;23.60;;;21.30;;
63534;SDS011;55128;50.230;18.944;2023-09-12T23:28:19;25.17;;;22.83;;
63534;SDS011;55128;50.230;18.944;2023-09-12T23:33:20;25.98;;;23.27;;
63534;SDS011;55128;50.230;18.944;2023-09-12T23:38:20;26.83;;;24.15;;
63534;SDS011;55128;50.230;18.944;2023-09-12T23:43:21;25.00;;;22.70;;
63534;SDS011;55128;50.230;18.944;2023-09-12T23:48:21;25.20;;;22.70;;
63534;SDS011;55128;50.230;18.944;2023-09-12T23:53:21;28.40;;;25.57;;
63534;SDS011;55128;50.230;18.944;2023-09-12T23:58:22;26.90;;;24.23;;
